Time,TemperatureF,DewpointF,PressureIn,WindDirection,WindDirectionDegrees,WindSpeedMPH,WindSpeedGustMPH,Humidity,HourlyPrecipIn,Conditions,Clouds,dailyrainin,SoftwareType,DateUTC
2013-09-02 00:02:00,67.7,64.3,29.79,West,270,0.0,1.0,89,0.00,,,0.00,Wunderground v.1.15,2013-09-02 07:02:00,
2013-09-02 00:07:00,67.7,64.3,29.79,West,269,0.0,1.0,89,0.00,,,0.00,Wunderground v.1.15,2013-09-02 07:07:00,
2013-09-02 00:13:00,67.6,64.2,29.78,West,270,0.0,1.0,89,0.00,,,0.00,Wunderground v.1.15,2013-09-02 07:13:00,
2013-09-02 00:18:00,67.6,64.2,29.78,West,270,0.0,1.0,89,0.00,,,0.00,Wunderground v.1.15,2013-09-02 07:18:00,
2013-09-02 00:24:00,67.5,64.1,29.78,West,269,0.0,1.0,89,0.00,,,0.00,Wunderground v.1.15,2013-09-02 07:24:00,
2013-09-02 00:29:00,67.4,64.4,29.78,West,270,0.0,1.0,90,0.00,,,0.00,Wunderground v.1.15,2013-09-02 07:29:00,
2013-09-02 00:34:00,67.4,64.4,29.78,West,270,0.0,1.0,90,0.00,,,0.00,Wunderground v.1.15,2013-09-02 07:34:00,
2013-09-02 00:39:00,67.3,64.3,29.78,West,270,0.0,1.0,90,0.00,,,0.00,Wunderground v.1.15,2013-09-02 07:39:00,
2013-09-02 00:44:00,67.2,64.2,29.78,West,270,0.0,1.0,90,0.00,,,0.00,Wunderground v.1.15,2013-09-02 07:44:00,
2013-09-02 00:49:00,67.2,64.2,29.77,West,269,0.0,1.0,90,0.00,,,0.00,Wunderground v.1.15,2013-09-02 07:49:00,
2013-09-02 00:54:00,67.1,64.1,29.77,West,270,0.0,1.0,90,0.00,,,0.00,Wunderground v.1.15,2013-09-02 07:54:00,
2013-09-02 00:59:00,67.1,64.4,29.78,West,270,0.0,1.0,91,0.00,,,0.00,Wunderground v.1.15,2013-09-02 07:59:00,
2013-09-02 01:04:00,67.2,64.5,29.78,West,269,0.0,1.0,91,0.00,,,0.00,Wunderground v.1.15,2013-09-02 08:04:00,
2013-09-02 01:09:00,67.2,64.5,29.78,West,270,0.0,1.0,91,0.00,,,0.00,Wunderground v.1.15,2013-09-02 08:09:00,
2013-09-02 01:15:00,67.3,64.6,29.77,West,270,0.0,1.0,91,0.00,,,0.00,Wunderground v.1.15,2013-09-02 08:15:00,
2013-09-02 01:21:00,67.3,64.6,29.78,West,270,0.0,1.0,91,0.00,,,0.00,Wunderground v.1.15,2013-09-02 08:21:00,
2013-09-02 01:26:00,67.3,64.3,29.78,West,270,0.0,1.0,90,0.00,,,0.00,Wunderground v.1.15,2013-09-02 08:26:00,
2013-09-02 01:31:00,67.2,64.2,29.77,West,270,0.0,1.0,90,0.00,,,0.00,Wunderground v.1.15,2013-09-02 08:31:00,
2013-09-02 01:36:00,67.1,64.1,29.78,West,270,0.0,1.0,90,0.00,,,0.00,Wunderground v.1.15,2013-09-02 08:36:00,
2013-09-02 01:41:00,67.0,64.0,29.77,West,269,0.0,1.0,90,0.00,,,0.00,Wunderground v.1.15,2013-09-02 08:41:00,
2013-09-02 01:46:00,66.9,63.9,29.78,West,270,0.0,1.0,90,0.00,,,0.00,Wunderground v.1.15,2013-09-02 08:46:00,
2013-09-02 01:51:00,66.9,63.9,29.78,West,270,0.0,1.0,90,0.00,,,0.00,Wunderground v.1.15,2013-09-02 08:51:00,
2013-09-02 01:57:00,66.7,63.7,29.77,West,269,0.0,1.0,90,0.00,,,0.00,Wunderground v.1.15,2013-09-02 08:57:00,
2013-09-02 02:02:00,66.6,63.9,29.78,West,270,0.0,1.0,91,0.00,,,0.00,Wunderground v.1.15,2013-09-02 09:02:00,
2013-09-02 02:07:00,66.6,63.9,29.78,West,270,0.0,1.0,91,0.00,,,0.00,Wunderground v.1.15,2013-09-02 09:07:00,
2013-09-02 02:12:00,66.6,63.9,29.77,West,269,0.0,1.0,91,0.00,,,0.00,Wunderground v.1.15,2013-09-02 09:12:00,
2013-09-02 02:17:00,66.5,63.8,29.77,West,270,0.0,1.0,91,0.00,,,0.00,Wunderground v.1.15,2013-09-02 09:17:00,
2013-09-02 02:22:00,66.3,63.6,29.78,West,269,0.0,1.0,91,0.00,,,0.00,Wunderground v.1.15,2013-09-02 09:22:00,
2013-09-02 02:27:00,66.2,63.5,29.78,West,270,0.0,1.0,91,0.00,,,0.00,Wunderground v.1.15,2013-09-02 09:27:00,
2013-09-02 02:33:00,66.2,63.5,29.78,West,269,0.0,1.0,91,0.00,,,0.00,Wunderground v.1.15,2013-09-02 09:33:00,
2013-09-02 02:39:00,66.9,64.2,29.78,West,270,0.0,1.0,91,0.00,,,0.00,Wunderground v.1.15,2013-09-02 09:39:00,
2013-09-02 02:44:00,67.7,64.3,29.78,West,270,0.0,1.0,89,0.00,,,0.00,Wunderground v.1.15,2013-09-02 09:44:00,
2013-09-02 02:49:00,68.0,64.3,29.78,West,269,0.0,1.0,88,0.00,,,0.00,Wunderground v.1.15,2013-09-02 09:49:00,
2013-09-02 02:54:00,67.9,63.9,29.78,West,269,0.0,1.0,87,0.00,,,0.00,Wunderground v.1.15,2013-09-02 09:54:00,
2013-09-02 02:59:00,67.7,63.7,29.78,West,269,0.0,1.0,87,0.00,,,0.00,Wunderground v.1.15,2013-09-02 09:59:00,
2013-09-02 03:04:00,67.5,63.8,29.78,West,269,0.0,1.0,88,0.00,,,0.00,Wunderground v.1.15,2013-09-02 10:04:00,
2013-09-02 03:09:00,67.3,63.9,29.78,West,270,0.0,1.0,89,0.00,,,0.00,Wunderground v.1.15,2013-09-02 10:09:00,
2013-09-02 03:14:00,67.2,63.8,29.78,West,270,0.0,1.0,89,0.00,,,0.00,Wunderground v.1.15,2013-09-02 10:14:00,
2013-09-02 03:19:00,67.0,63.6,29.78,West,269,0.0,1.0,89,0.00,,,0.00,Wunderground v.1.15,2013-09-02 10:19:00,
2013-09-02 03:24:00,66.8,63.5,29.78,West,270,0.0,1.0,89,0.00,,,0.00,Wunderground v.1.15,2013-09-02 10:24:00,
2013-09-02 03:30:00,66.7,63.7,29.78,West,270,0.0,1.0,90,0.00,,,0.00,Wunderground v.1.15,2013-09-02 10:30:00,
2013-09-02 03:35:00,66.6,63.9,29.78,West,270,0.0,1.0,91,0.00,,,0.00,Wunderground v.1.15,2013-09-02 10:35:00,
2013-09-02 03:41:00,66.5,63.8,29.78,West,269,0.0,1.0,91,0.00,,,0.00,Wunderground v.1.15,2013-09-02 10:41:00,
2013-09-02 03:46:00,66.4,63.7,29.78,West,270,0.0,1.0,91,0.00,,,0.00,Wunderground v.1.15,2013-09-02 10:46:00,
2013-09-02 03:51:00,66.3,63.6,29.78,West,269,0.0,1.0,91,0.00,,,0.00,Wunderground v.1.15,2013-09-02 10:51:00,
2013-09-02 03:56:00,66.2,63.5,29.78,West,269,0.0,1.0,91,0.00,,,0.00,Wunderground v.1.15,2013-09-02 10:56:00,
2013-09-02 04:01:00,66.1,63.7,29.78,West,270,0.0,1.0,92,0.00,,,0.00,Wunderground v.1.15,2013-09-02 11:01:00,
2013-09-02 04:06:00,66.0,63.6,29.78,West,270,0.0,1.0,92,0.00,,,0.00,Wunderground v.1.15,2013-09-02 11:06:00,
2013-09-02 04:12:00,65.9,63.5,29.78,West,269,0.0,1.0,92,0.00,,,0.00,Wunderground v.1.15,2013-09-02 11:12:00,
2013-09-02 04:17:00,65.8,63.4,29.78,West,270,0.0,1.0,92,0.00,,,0.00,Wunderground v.1.15,2013-09-02 11:17:00,
2013-09-02 04:22:00,65.7,63.3,29.78,West,270,0.0,1.0,92,0.00,,,0.00,Wunderground v.1.15,2013-09-02 11:22:00,
2013-09-02 04:27:00,65.6,63.2,29.78,West,270,0.0,1.0,92,0.00,,,0.00,Wunderground v.1.15,2013-09-02 11:27:00,
2013-09-02 04:33:00,65.4,63.3,29.78,West,269,0.0,1.0,93,0.00,,,0.00,Wunderground v.1.15,2013-09-02 11:33:00,
2013-09-02 04:38:00,65.4,63.3,29.78,West,270,0.0,1.0,93,0.00,,,0.00,Wunderground v.1.15,2013-09-02 11:38:00,
2013-09-02 04:43:00,65.3,63.2,29.78,West,270,0.0,1.0,93,0.00,,,0.00,Wunderground v.1.15,2013-09-02 11:43:00,
2013-09-02 04:48:00,65.3,63.2,29.78,West,269,0.0,1.0,93,0.00,,,0.00,Wunderground v.1.15,2013-09-02 11:48:00,
2013-09-02 04:54:00,65.2,63.1,29.78,West,270,0.0,1.0,93,0.00,,,0.00,Wunderground v.1.15,2013-09-02 11:54:00,
2013-09-02 04:59:00,65.0,62.9,29.78,West,270,0.0,1.0,93,0.00,,,0.00,Wunderground v.1.15,2013-09-02 11:59:00,
2013-09-02 05:04:00,64.9,62.8,29.78,West,270,0.0,1.0,93,0.00,,,0.00,Wunderground v.1.15,2013-09-02 12:04:00,
2013-09-02 05:09:00,64.9,62.8,29.78,West,270,0.0,1.0,93,0.00,,,0.00,Wunderground v.1.15,2013-09-02 12:09:00,
2013-09-02 05:14:00,64.8,62.7,29.78,West,270,0.0,1.0,93,0.00,,,0.00,Wunderground v.1.15,2013-09-02 12:14:00,
2013-09-02 05:20:00,64.7,62.9,29.78,West,270,0.0,1.0,94,0.00,,,0.00,Wunderground v.1.15,2013-09-02 12:20:00,
2013-09-02 05:25:00,64.7,62.9,29.78,West,269,0.0,1.0,94,0.00,,,0.00,Wunderground v.1.15,2013-09-02 12:25:00,
2013-09-02 05:30:00,64.6,62.8,29.78,West,270,0.0,1.0,94,0.00,,,0.00,Wunderground v.1.15,2013-09-02 12:30:00,
2013-09-02 05:35:00,64.5,62.7,29.78,West,270,0.0,1.0,94,0.00,,,0.00,Wunderground v.1.15,2013-09-02 12:35:00,
2013-09-02 05:41:00,64.4,62.6,29.78,West,270,0.0,1.0,94,0.00,,,0.00,Wunderground v.1.15,2013-09-02 12:41:00,
2013-09-02 05:46:00,64.8,63.3,29.78,West,270,0.0,1.0,95,0.00,,,0.00,Wunderground v.1.15,2013-09-02 12:46:00,
2013-09-02 05:51:00,65.4,63.6,29.77,West,270,0.0,1.0,94,0.00,,,0.00,Wunderground v.1.15,2013-09-02 12:51:00,
2013-09-02 05:56:00,65.8,63.7,29.77,West,269,0.0,1.0,93,0.00,,,0.00,Wunderground v.1.15,2013-09-02 12:56:00,
2013-09-02 06:01:00,65.7,63.3,29.78,West,270,0.0,1.0,92,0.00,,,0.00,Wunderground v.1.15,2013-09-02 13:01:00,
2013-09-02 06:06:00,65.4,62.7,29.77,West,269,0.0,1.0,91,0.00,,,0.00,Wunderground v.1.15,2013-09-02 13:06:00,
2013-09-02 06:11:00,65.2,62.8,29.78,West,269,0.0,1.0,92,0.00,,,0.00,Wunderground v.1.15,2013-09-02 13:11:00,
2013-09-02 06:16:00,65.0,62.6,29.77,West,270,0.0,1.0,92,0.00,,,0.00,Wunderground v.1.15,2013-09-02 13:16:00,
2013-09-02 06:21:00,64.9,62.5,29.78,West,270,0.0,1.0,92,0.00,,,0.00,Wunderground v.1.15,2013-09-02 13:21:00,
2013-09-02 06:26:00,64.7,62.3,29.78,West,269,0.0,1.0,92,0.00,,,0.00,Wunderground v.1.15,2013-09-02 13:26:00,
2013-09-02 06:32:00,64.6,62.5,29.78,West,270,0.0,1.0,93,0.00,,,0.00,Wunderground v.1.15,2013-09-02 13:32:00,
2013-09-02 06:37:00,64.5,62.4,29.79,West,269,0.0,1.0,93,0.00,,,0.00,Wunderground v.1.15,2013-09-02 13:37:00,
2013-09-02 06:42:00,64.4,62.3,29.79,West,270,0.0,1.0,93,0.00,,,0.00,Wunderground v.1.15,2013-09-02 13:42:00,
2013-09-02 06:47:00,64.2,62.1,29.79,West,270,0.0,1.0,93,0.00,,,0.00,Wunderground v.1.15,2013-09-02 13:47:00,
2013-09-02 06:52:00,64.1,62.0,29.79,West,269,0.0,1.0,93,0.00,,,0.00,Wunderground v.1.15,2013-09-02 13:52:00,
2013-09-02 06:57:00,64.0,61.9,29.79,West,270,0.0,1.0,93,0.00,,,0.00,Wunderground v.1.15,2013-09-02 13:57:00,
2013-09-02 07:02:00,63.9,61.8,29.79,West,270,0.0,1.0,93,0.00,,,0.00,Wunderground v.1.15,2013-09-02 14:02:00,
2013-09-02 07:07:00,63.9,62.1,29.80,West,269,0.0,1.0,94,0.00,,,0.00,Wunderground v.1.15,2013-09-02 14:07:00,
2013-09-02 07:12:00,64.0,62.2,29.80,West,270,0.0,1.0,94,0.00,,,0.00,Wunderground v.1.15,2013-09-02 14:12:00,
2013-09-02 07:17:00,64.2,62.7,29.80,West,269,0.0,1.0,95,0.00,,,0.00,Wunderground v.1.15,2013-09-02 14:17:00,
2013-09-02 07:22:00,64.5,63.0,29.80,West,269,0.0,1.0,95,0.00,,,0.00,Wunderground v.1.15,2013-09-02 14:22:00,
2013-09-02 07:28:00,64.9,63.4,29.80,West,270,0.0,1.0,95,0.00,,,0.00,Wunderground v.1.15,2013-09-02 14:28:00,
2013-09-02 07:33:00,65.0,63.2,29.80,West,270,0.0,1.0,94,0.00,,,0.00,Wunderground v.1.15,2013-09-02 14:33:00,
2013-09-02 07:38:00,65.3,63.5,29.80,West,270,0.0,1.0,94,0.00,,,0.00,Wunderground v.1.15,2013-09-02 14:38:00,
2013-09-02 07:43:00,65.7,63.9,29.80,West,270,0.0,1.0,94,0.00,,,0.00,Wunderground v.1.15,2013-09-02 14:43:00,
2013-09-02 07:48:00,66.1,64.3,29.80,West,270,0.0,1.0,94,0.00,,,0.00,Wunderground v.1.15,2013-09-02 14:48:00,
2013-09-02 07:53:00,66.5,64.4,29.80,West,270,0.0,1.0,93,0.00,,,0.00,Wunderground v.1.15,2013-09-02 14:53:00,
2013-09-02 07:58:00,66.7,64.6,29.81,West,270,0.0,1.0,93,0.00,,,0.00,Wunderground v.1.15,2013-09-02 14:58:00,
2013-09-02 08:04:00,67.1,65.0,29.81,West,270,0.0,1.0,93,0.00,,,0.00,Wunderground v.1.15,2013-09-02 15:04:00,
2013-09-02 08:10:00,67.6,65.2,29.81,West,269,0.0,1.0,92,0.00,,,0.00,Wunderground v.1.15,2013-09-02 15:10:00,
2013-09-02 08:15:00,67.9,65.5,29.81,West,269,0.0,1.0,92,0.00,,,0.00,Wunderground v.1.15,2013-09-02 15:15:00,
2013-09-02 08:20:00,68.3,65.6,29.81,West,270,0.0,1.0,91,0.00,,,0.00,Wunderground v.1.15,2013-09-02 15:20:00,
2013-09-02 08:25:00,68.9,65.8,29.81,West,270,0.0,1.0,90,0.00,,,0.00,Wunderground v.1.15,2013-09-02 15:25:00,
2013-09-02 08:30:00,69.5,66.1,29.81,West,269,0.0,1.0,89,0.00,,,0.00,Wunderground v.1.15,2013-09-02 15:30:00,
2013-09-02 08:35:00,70.0,66.3,29.81,West,270,0.0,1.0,88,0.00,,,0.00,Wunderground v.1.15,2013-09-02 15:35:00,
2013-09-02 08:40:00,70.3,66.6,29.81,West,270,0.0,1.0,88,0.00,,,0.00,Wunderground v.1.15,2013-09-02 15:40:00,
2013-09-02 08:45:00,70.7,66.6,29.81,West,270,0.0,1.0,87,0.00,,,0.00,Wunderground v.1.15,2013-09-02 15:45:00,
2013-09-02 08:50:00,71.2,66.8,29.81,West,270,0.0,1.0,86,0.00,,,0.00,Wunderground v.1.15,2013-09-02 15:50:00,
2013-09-02 08:55:00,71.7,67.3,29.81,West,269,0.0,1.0,86,0.00,,,0.00,Wunderground v.1.15,2013-09-02 15:55:00,
2013-09-02 09:01:00,72.3,67.2,29.81,West,270,0.0,1.0,84,0.00,,,0.00,Wunderground v.1.15,2013-09-02 16:01:00,
2013-09-02 09:06:00,72.6,67.5,29.81,West,270,0.0,2.0,84,0.00,,,0.00,Wunderground v.1.15,2013-09-02 16:06:00,
2013-09-02 09:12:00,73.2,67.7,29.81,West,270,0.0,1.0,83,0.00,,,0.00,Wunderground v.1.15,2013-09-02 16:12:00,
2013-09-02 09:17:00,73.7,67.9,29.81,West,270,0.0,1.0,82,0.00,,,0.00,Wunderground v.1.15,2013-09-02 16:17:00,
2013-09-02 09:22:00,74.4,68.5,29.81,West,269,0.0,1.0,82,0.00,,,0.00,Wunderground v.1.15,2013-09-02 16:22:00,
2013-09-02 09:27:00,75.0,68.4,29.81,West,270,0.0,1.0,80,0.00,,,0.00,Wunderground v.1.15,2013-09-02 16:27:00,
2013-09-02 09:32:00,75.5,68.9,29.81,West,269,0.0,2.0,80,0.00,,,0.00,Wunderground v.1.15,2013-09-02 16:32:00,
2013-09-02 09:37:00,76.0,69.4,29.81,West,270,0.0,2.0,80,0.00,,,0.00,Wunderground v.1.15,2013-09-02 16:37:00,
2013-09-02 09:43:00,76.6,68.8,29.81,West,270,1.0,4.0,77,0.00,,,0.00,Wunderground v.1.15,2013-09-02 16:43:00,
2013-09-02 09:48:00,77.0,69.2,29.81,West,269,1.0,4.0,77,0.00,,,0.00,Wunderground v.1.15,2013-09-02 16:48:00,
2013-09-02 09:53:00,77.6,69.0,29.81,West,265,1.0,2.0,75,0.00,,,0.00,Wunderground v.1.15,2013-09-02 16:53:00,
2013-09-02 09:58:00,78.2,69.6,29.81,West,265,1.0,2.0,75,0.00,,,0.00,Wunderground v.1.15,2013-09-02 16:58:00,
2013-09-02 10:03:00,78.8,69.8,29.81,West,269,1.0,3.0,74,0.00,,,0.00,Wunderground v.1.15,2013-09-02 17:03:00,
2013-09-02 10:08:00,79.6,69.8,29.81,SW,236,1.0,5.0,72,0.00,,,0.00,Wunderground v.1.15,2013-09-02 17:08:00,
2013-09-02 10:13:00,80.1,69.4,29.81,WSW,250,1.0,5.0,70,0.00,,,0.00,Wunderground v.1.15,2013-09-02 17:13:00,
2013-09-02 10:18:00,80.6,69.5,29.81,West,261,1.0,5.0,69,0.00,,,0.00,Wunderground v.1.15,2013-09-02 17:18:00,
2013-09-02 10:24:00,80.9,69.8,29.81,West,271,2.0,5.0,69,0.00,,,0.00,Wunderground v.1.15,2013-09-02 17:24:00,
2013-09-02 10:29:00,80.9,69.8,29.81,WNW,289,3.0,5.0,69,0.00,,,0.00,Wunderground v.1.15,2013-09-02 17:29:00,
2013-09-02 10:34:00,81.1,70.4,29.81,West,264,3.0,7.0,70,0.00,,,0.00,Wunderground v.1.15,2013-09-02 17:34:00,
2013-09-02 10:39:00,81.4,69.8,29.81,West,272,3.0,7.0,68,0.00,,,0.00,Wunderground v.1.15,2013-09-02 17:39:00,
2013-09-02 10:44:00,81.7,69.7,29.81,WSW,245,4.0,8.0,67,0.00,,,0.00,Wunderground v.1.15,2013-09-02 17:44:00,
2013-09-02 10:49:00,81.9,69.9,29.81,WSW,250,4.0,8.0,67,0.00,,,0.00,Wunderground v.1.15,2013-09-02 17:49:00,
2013-09-02 10:54:00,82.3,70.2,29.81,West,275,4.0,5.0,67,0.00,,,0.00,Wunderground v.1.15,2013-09-02 17:54:00,
2013-09-02 10:59:00,82.7,71.1,29.81,West,280,3.0,6.0,68,0.00,,,0.00,Wunderground v.1.15,2013-09-02 17:59:00,
2013-09-02 11:04:00,83.8,71.2,29.81,WNW,292,2.0,3.0,66,0.00,,,0.00,Wunderground v.1.15,2013-09-02 18:04:00,
2013-09-02 11:09:00,84.5,70.5,29.80,WNW,284,2.0,7.0,63,0.00,,,0.00,Wunderground v.1.15,2013-09-02 18:09:00,
2013-09-02 11:14:00,84.7,70.7,29.80,SSW,202,4.0,4.0,63,0.00,,,0.00,Wunderground v.1.15,2013-09-02 18:14:00,
2013-09-02 11:19:00,84.6,70.6,29.80,SW,232,4.0,6.0,63,0.00,,,0.00,Wunderground v.1.15,2013-09-02 18:19:00,
2013-09-02 11:24:00,84.0,70.5,29.80,WSW,257,5.0,8.0,64,0.00,,,0.00,Wunderground v.1.15,2013-09-02 18:24:00,
2013-09-02 11:30:00,83.7,70.2,29.80,West,281,5.0,5.0,64,0.00,,,0.00,Wunderground v.1.15,2013-09-02 18:30:00,
2013-09-02 11:35:00,84.1,70.6,29.80,West,263,5.0,8.0,64,0.00,,,0.00,Wunderground v.1.15,2013-09-02 18:35:00,
2013-09-02 11:40:00,84.4,70.9,29.80,West,275,3.0,3.0,64,0.00,,,0.00,Wunderground v.1.15,2013-09-02 18:40:00,
2013-09-02 11:45:00,84.5,71.0,29.79,SW,234,3.0,12.0,64,0.00,,,0.00,Wunderground v.1.15,2013-09-02 18:45:00,
2013-09-02 11:51:00,84.7,70.7,29.79,NE,34,4.0,5.0,63,0.00,,,0.00,Wunderground v.1.15,2013-09-02 18:51:00,
2013-09-02 11:56:00,85.0,70.0,29.79,NNW,335,4.0,9.0,61,0.00,,,0.00,Wunderground v.1.15,2013-09-02 18:56:00,
2013-09-02 12:01:00,85.0,70.0,29.79,West,263,5.0,10.0,61,0.00,,,0.00,Wunderground v.1.15,2013-09-02 19:01:00,
2013-09-02 12:06:00,85.0,70.5,29.79,West,265,5.0,10.0,62,0.00,,,0.00,Wunderground v.1.15,2013-09-02 19:06:00,
2013-09-02 12:12:00,85.1,70.6,29.79,NW,326,4.0,5.0,62,0.00,,,0.00,Wunderground v.1.15,2013-09-02 19:12:00,
2013-09-02 12:17:00,85.5,70.0,29.79,West,272,4.0,9.0,60,0.00,,,0.00,Wunderground v.1.15,2013-09-02 19:17:00,
2013-09-02 12:22:00,85.0,69.6,29.78,West,280,4.0,6.0,60,0.00,,,0.00,Wunderground v.1.15,2013-09-02 19:22:00,
2013-09-02 12:27:00,85.1,70.1,29.79,NNW,329,4.0,6.0,61,0.00,,,0.00,Wunderground v.1.15,2013-09-02 19:27:00,
2013-09-02 12:32:00,85.5,70.5,29.79,West,272,4.0,4.0,61,0.00,,,0.00,Wunderground v.1.15,2013-09-02 19:32:00,
2013-09-02 12:37:00,86.1,70.6,29.79,NNW,338,4.0,8.0,60,0.00,,,0.00,Wunderground v.1.15,2013-09-02 19:37:00,
2013-09-02 12:42:00,86.2,70.7,29.79,WNW,291,4.0,5.0,60,0.00,,,0.00,Wunderground v.1.15,2013-09-02 19:42:00,
2013-09-02 12:47:00,85.8,70.3,29.78,WNW,292,5.0,8.0,60,0.00,,,0.00,Wunderground v.1.15,2013-09-02 19:47:00,
2013-09-02 12:52:00,85.7,70.7,29.78,WNW,300,4.0,9.0,61,0.00,,,0.00,Wunderground v.1.15,2013-09-02 19:52:00,
2013-09-02 12:58:00,86.0,69.5,29.78,WNW,284,4.0,9.0,58,0.00,,,0.00,Wunderground v.1.15,2013-09-02 19:58:00,
2013-09-02 13:03:00,86.0,70.0,29.78,West,275,4.0,10.0,59,0.00,,,0.00,Wunderground v.1.15,2013-09-02 20:03:00,
2013-09-02 13:09:00,86.0,70.5,29.78,NW,310,5.0,10.0,60,0.00,,,0.00,Wunderground v.1.15,2013-09-02 20:09:00,
2013-09-02 13:14:00,86.0,69.5,29.78,West,265,6.0,11.0,58,0.00,,,0.00,Wunderground v.1.15,2013-09-02 20:14:00,
2013-09-02 13:19:00,86.0,69.5,29.77,West,263,6.0,11.0,58,0.00,,,0.00,Wunderground v.1.15,2013-09-02 20:19:00,
2013-09-02 13:24:00,85.6,69.6,29.77,NW,325,5.0,8.0,59,0.00,,,0.00,Wunderground v.1.15,2013-09-02 20:24:00,
2013-09-02 13:29:00,85.5,70.5,29.77,SW,227,5.0,8.0,61,0.00,,,0.00,Wunderground v.1.15,2013-09-02 20:29:00,
2013-09-02 13:34:00,85.7,70.2,29.77,WNW,292,4.0,6.0,60,0.00,,,0.00,Wunderground v.1.15,2013-09-02 20:34:00,
2013-09-02 13:39:00,85.8,71.3,29.77,NW,311,4.0,6.0,62,0.00,,,0.00,Wunderground v.1.15,2013-09-02 20:39:00,
2013-09-02 13:44:00,86.2,70.2,29.76,West,273,4.0,7.0,59,0.00,,,0.00,Wunderground v.1.15,2013-09-02 20:44:00,
2013-09-02 13:50:00,86.3,70.3,29.76,WNW,283,5.0,5.0,59,0.00,,,0.00,Wunderground v.1.15,2013-09-02 20:50:00,
2013-09-02 13:55:00,86.2,70.7,29.77,WNW,294,4.0,5.0,60,0.00,,,0.00,Wunderground v.1.15,2013-09-02 20:55:00,
2013-09-02 14:00:00,86.2,69.7,29.77,West,278,4.0,4.0,58,0.00,,,0.00,Wunderground v.1.15,2013-09-02 21:00:00,
2013-09-02 14:05:00,86.3,70.3,29.76,NW,315,3.0,7.0,59,0.00,,,0.00,Wunderground v.1.15,2013-09-02 21:05:00,
2013-09-02 14:10:00,86.6,70.1,29.76,WNW,300,4.0,4.0,58,0.00,,,0.00,Wunderground v.1.15,2013-09-02 21:10:00,
2013-09-02 14:16:00,86.7,70.2,29.75,WNW,286,4.0,7.0,58,0.00,,,0.00,Wunderground v.1.15,2013-09-02 21:16:00,
2013-09-02 14:21:00,86.5,70.0,29.75,West,278,5.0,5.0,58,0.00,,,0.00,Wunderground v.1.15,2013-09-02 21:21:00,
2013-09-02 14:26:00,86.5,70.0,29.75,West,262,5.0,8.0,58,0.00,,,0.00,Wunderground v.1.15,2013-09-02 21:26:00,
2013-09-02 14:32:00,86.6,69.6,29.75,West,279,5.0,8.0,57,0.00,,,0.00,Wunderground v.1.15,2013-09-02 21:32:00,
2013-09-02 14:37:00,86.7,70.2,29.74,NW,320,5.0,8.0,58,0.00,,,0.00,Wunderground v.1.15,2013-09-02 21:37:00,
2013-09-02 14:42:00,86.6,70.1,29.75,West,265,5.0,9.0,58,0.00,,,0.00,Wunderground v.1.15,2013-09-02 21:42:00,
2013-09-02 14:47:00,87.0,70.4,29.74,NW,317,4.0,9.0,58,0.00,,,0.00,Wunderground v.1.15,2013-09-02 21:47:00,
2013-09-02 14:52:00,87.4,70.3,29.74,SW,228,4.0,9.0,57,0.00,,,0.00,Wunderground v.1.15,2013-09-02 21:52:00,
2013-09-02 14:57:00,87.1,70.0,29.74,NW,314,5.0,9.0,57,0.00,,,0.00,Wunderground v.1.15,2013-09-02 21:57:00,
2013-09-02 15:02:00,87.0,70.4,29.74,NW,313,5.0,6.0,58,0.00,,,0.00,Wunderground v.1.15,2013-09-02 22:02:00,
2013-09-02 15:07:00,87.6,69.4,29.74,WNW,302,5.0,6.0,55,0.00,,,0.00,Wunderground v.1.15,2013-09-02 22:07:00,
2013-09-02 15:12:00,87.9,69.7,29.73,West,271,4.0,6.0,55,0.00,,,0.00,Wunderground v.1.15,2013-09-02 22:12:00,
2013-09-02 15:17:00,88.2,69.5,29.73,NW,305,4.0,7.0,54,0.00,,,0.00,Wunderground v.1.15,2013-09-02 22:17:00,
2013-09-02 15:23:00,87.9,69.2,29.73,West,263,4.0,8.0,54,0.00,,,0.00,Wunderground v.1.15,2013-09-02 22:23:00,
2013-09-02 15:28:00,87.1,69.0,29.72,West,270,5.0,8.0,55,0.00,,,0.00,Wunderground v.1.15,2013-09-02 22:28:00,
2013-09-02 15:33:00,86.7,69.1,29.73,WNW,288,4.0,12.0,56,0.00,,,0.00,Wunderground v.1.15,2013-09-02 22:33:00,
2013-09-02 15:38:00,86.3,69.3,29.73,West,275,4.0,12.0,57,0.00,,,0.00,Wunderground v.1.15,2013-09-02 22:38:00,
2013-09-02 15:43:00,86.4,69.4,29.73,WNW,303,4.0,6.0,57,0.00,,,0.00,Wunderground v.1.15,2013-09-02 22:43:00,
2013-09-02 15:48:00,86.1,69.1,29.72,NNW,330,5.0,7.0,57,0.00,,,0.00,Wunderground v.1.15,2013-09-02 22:48:00,
2013-09-02 15:53:00,86.1,69.1,29.72,WNW,303,4.0,11.0,57,0.00,,,0.00,Wunderground v.1.15,2013-09-02 22:53:00,
2013-09-02 15:58:00,86.2,69.7,29.72,WNW,291,4.0,11.0,58,0.00,,,0.00,Wunderground v.1.15,2013-09-02 22:58:00,
2013-09-02 16:03:00,86.0,69.0,29.72,WNW,295,5.0,12.0,57,0.00,,,0.00,Wunderground v.1.15,2013-09-02 23:03:00,
2013-09-02 16:08:00,85.6,69.1,29.73,West,277,5.0,12.0,58,0.00,,,0.00,Wunderground v.1.15,2013-09-02 23:08:00,
2013-09-02 16:13:00,85.4,68.9,29.72,WNW,286,4.0,7.0,58,0.00,,,0.00,Wunderground v.1.15,2013-09-02 23:13:00,
2013-09-02 16:19:00,84.9,69.5,29.72,NW,316,4.0,8.0,60,0.00,,,0.00,Wunderground v.1.15,2013-09-02 23:19:00,
2013-09-02 16:24:00,84.9,69.0,29.72,NW,317,4.0,5.0,59,0.00,,,0.00,Wunderground v.1.15,2013-09-02 23:24:00,
2013-09-02 16:29:00,84.6,68.7,29.72,WNW,287,3.0,5.0,59,0.00,,,0.00,Wunderground v.1.15,2013-09-02 23:29:00,
2013-09-02 16:34:00,84.1,68.7,29.72,NW,313,3.0,4.0,60,0.00,,,0.00,Wunderground v.1.15,2013-09-02 23:34:00,
2013-09-02 16:40:00,83.7,68.8,29.72,SSW,209,3.0,7.0,61,0.00,,,0.00,Wunderground v.1.15,2013-09-02 23:40:00,
2013-09-02 16:45:00,82.9,68.5,29.72,West,277,3.0,7.0,62,0.00,,,0.00,Wunderground v.1.15,2013-09-02 23:45:00,
2013-09-02 16:50:00,82.4,68.1,29.72,West,273,3.0,4.0,62,0.00,,,0.00,Wunderground v.1.15,2013-09-02 23:50:00,
2013-09-02 16:55:00,81.9,68.1,29.73,West,279,4.0,7.0,63,0.00,,,0.00,Wunderground v.1.15,2013-09-02 23:55:00,
2013-09-02 17:01:00,81.8,68.4,29.73,WNW,302,3.0,3.0,64,0.00,,,0.00,Wunderground v.1.15,2013-09-03 00:01:00,
2013-09-02 17:06:00,82.0,68.2,29.73,WNW,301,2.0,3.0,63,0.00,,,0.00,Wunderground v.1.15,2013-09-03 00:06:00,
2013-09-02 17:11:00,81.6,67.8,29.72,West,259,2.0,3.0,63,0.00,,,0.00,Wunderground v.1.15,2013-09-03 00:11:00,
2013-09-02 17:16:00,81.0,67.7,29.72,WNW,298,2.0,6.0,64,0.00,,,0.00,Wunderground v.1.15,2013-09-03 00:16:00,
2013-09-02 17:21:00,80.5,67.6,29.72,West,273,2.0,8.0,65,0.00,,,0.00,Wunderground v.1.15,2013-09-03 00:21:00,
2013-09-02 17:26:00,79.6,67.2,29.72,WNW,291,2.0,8.0,66,0.00,,,0.00,Wunderground v.1.15,2013-09-03 00:26:00,
2013-09-02 17:31:00,78.8,67.3,29.73,West,272,3.0,3.0,68,0.00,,,0.00,Wunderground v.1.15,2013-09-03 00:31:00,
2013-09-02 17:36:00,78.6,67.6,29.73,NW,310,2.0,3.0,69,0.00,,,0.00,Wunderground v.1.15,2013-09-03 00:36:00,
2013-09-02 17:41:00,78.3,67.3,29.73,WNW,284,1.0,1.0,69,0.00,,,0.00,Wunderground v.1.15,2013-09-03 00:41:00,
2013-09-02 17:46:00,78.2,67.2,29.73,West,269,2.0,5.0,69,0.00,,,0.00,Wunderground v.1.15,2013-09-03 00:46:00,
2013-09-02 17:51:00,78.4,67.4,29.72,NW,309,1.0,3.0,69,0.00,,,0.00,Wunderground v.1.15,2013-09-03 00:51:00,
2013-09-02 17:57:00,78.5,67.1,29.72,West,271,0.0,3.0,68,0.00,,,0.00,Wunderground v.1.15,2013-09-03 00:57:00,
2013-09-02 18:02:00,78.4,67.4,29.72,WNW,303,0.0,5.0,69,0.00,,,0.00,Wunderground v.1.15,2013-09-03 01:02:00,
2013-09-02 18:07:00,78.3,67.3,29.73,NW,323,1.0,5.0,69,0.00,,,0.00,Wunderground v.1.15,2013-09-03 01:07:00,
2013-09-02 18:12:00,77.8,67.2,29.72,NW,326,1.0,2.0,70,0.00,,,0.00,Wunderground v.1.15,2013-09-03 01:12:00,
2013-09-02 18:17:00,77.4,66.8,29.72,NW,325,1.0,2.0,70,0.00,,,0.00,Wunderground v.1.15,2013-09-03 01:17:00,
2013-09-02 18:22:00,76.9,66.8,29.72,WSW,258,0.0,1.0,71,0.00,,,0.00,Wunderground v.1.15,2013-09-03 01:22:00,
2013-09-02 18:27:00,76.6,66.9,29.72,West,259,0.0,1.0,72,0.00,,,0.00,Wunderground v.1.15,2013-09-03 01:27:00,
2013-09-02 18:32:00,76.4,67.1,29.72,West,263,0.0,1.0,73,0.00,,,0.00,Wunderground v.1.15,2013-09-03 01:32:00,
2013-09-02 18:37:00,76.3,67.0,29.71,West,268,0.0,1.0,73,0.00,,,0.00,Wunderground v.1.15,2013-09-03 01:37:00,
2013-09-02 18:42:00,76.2,66.9,29.72,West,271,0.0,1.0,73,0.00,,,0.00,Wunderground v.1.15,2013-09-03 01:42:00,
2013-09-02 18:47:00,76.0,66.7,29.71,West,271,0.0,1.0,73,0.00,,,0.00,Wunderground v.1.15,2013-09-03 01:47:00,
2013-09-02 18:53:00,75.4,66.5,29.71,West,271,0.0,1.0,74,0.00,,,0.00,Wunderground v.1.15,2013-09-03 01:53:00,
2013-09-02 18:59:00,74.9,66.4,29.71,West,271,0.0,1.0,75,0.00,,,0.00,Wunderground v.1.15,2013-09-03 01:59:00,
2013-09-02 19:04:00,74.6,66.5,29.71,West,271,0.0,1.0,76,0.00,,,0.00,Wunderground v.1.15,2013-09-03 02:04:00,
2013-09-02 19:09:00,74.2,66.1,29.71,West,271,0.0,1.0,76,0.00,,,0.00,Wunderground v.1.15,2013-09-03 02:09:00,
2013-09-02 19:14:00,74.1,66.4,29.72,West,271,0.0,1.0,77,0.00,,,0.00,Wunderground v.1.15,2013-09-03 02:14:00,
2013-09-02 19:19:00,74.0,66.3,29.72,West,271,0.0,1.0,77,0.00,,,0.00,Wunderground v.1.15,2013-09-03 02:19:00,
2013-09-02 19:24:00,74.4,66.7,29.72,West,271,0.0,1.0,77,0.00,,,0.00,Wunderground v.1.15,2013-09-03 02:24:00,
2013-09-02 19:29:00,75.6,67.1,29.71,West,271,0.0,1.0,75,0.00,,,0.00,Wunderground v.1.15,2013-09-03 02:29:00,
2013-09-02 19:35:00,76.5,67.2,29.71,West,271,0.0,1.0,73,0.00,,,0.00,Wunderground v.1.15,2013-09-03 02:35:00,
2013-09-02 19:40:00,77.1,67.4,29.72,West,271,0.0,1.0,72,0.00,,,0.00,Wunderground v.1.15,2013-09-03 02:40:00,
2013-09-02 19:45:00,77.3,66.7,29.72,West,271,0.0,1.0,70,0.00,,,0.00,Wunderground v.1.15,2013-09-03 02:45:00,
2013-09-02 19:50:00,76.8,66.7,29.72,West,271,0.0,1.0,71,0.00,,,0.00,Wunderground v.1.15,2013-09-03 02:50:00,
2013-09-02 19:55:00,76.3,66.6,29.72,West,271,0.0,1.0,72,0.00,,,0.00,Wunderground v.1.15,2013-09-03 02:55:00,
2013-09-02 20:00:00,75.8,66.5,29.72,West,271,0.0,1.0,73,0.00,,,0.00,Wunderground v.1.15,2013-09-03 03:00:00,
2013-09-02 20:05:00,75.3,66.8,29.73,West,271,0.0,1.0,75,0.00,,,0.00,Wunderground v.1.15,2013-09-03 03:05:00,
2013-09-02 20:11:00,74.9,66.8,29.73,West,271,0.0,1.0,76,0.00,,,0.00,Wunderground v.1.15,2013-09-03 03:11:00,
2013-09-02 20:17:00,74.9,66.8,29.72,West,271,0.0,1.0,76,0.00,,,0.00,Wunderground v.1.15,2013-09-03 03:17:00,
2013-09-02 20:22:00,75.2,66.7,29.73,West,271,0.0,1.0,75,0.00,,,0.00,Wunderground v.1.15,2013-09-03 03:22:00,
2013-09-02 20:27:00,75.2,66.7,29.74,West,271,0.0,1.0,75,0.00,,,0.00,Wunderground v.1.15,2013-09-03 03:27:00,
2013-09-02 20:32:00,75.0,66.5,29.75,West,271,0.0,1.0,75,0.00,,,0.00,Wunderground v.1.15,2013-09-03 03:32:00,
2013-09-02 20:37:00,74.8,66.3,29.75,West,271,0.0,1.0,75,0.00,,,0.00,Wunderground v.1.15,2013-09-03 03:37:00,
2013-09-02 20:42:00,74.5,66.4,29.75,West,271,0.0,1.0,76,0.00,,,0.00,Wunderground v.1.15,2013-09-03 03:42:00,
2013-09-02 20:47:00,74.1,66.4,29.75,West,271,0.0,1.0,77,0.00,,,0.00,Wunderground v.1.15,2013-09-03 03:47:00,
2013-09-02 20:52:00,73.9,66.2,29.75,West,271,0.0,1.0,77,0.00,,,0.00,Wunderground v.1.15,2013-09-03 03:52:00,
2013-09-02 20:57:00,73.7,66.4,29.75,West,271,0.0,1.0,78,0.00,,,0.00,Wunderground v.1.15,2013-09-03 03:57:00,
2013-09-02 21:01:00,73.5,66.2,29.75,West,271,0.0,1.0,78,0.00,,,0.00,Wunderground v.1.15,2013-09-03 04:01:00,
2013-09-02 21:02:00,73.5,66.6,29.75,West,271,0.0,1.0,79,0.00,,,0.00,Wunderground v.1.15,2013-09-03 04:02:00,
2013-09-02 21:04:00,73.5,66.6,29.75,West,271,0.0,1.0,79,0.00,,,0.00,Wunderground v.1.15,2013-09-03 04:04:00,
2013-09-02 21:06:00,73.6,66.7,29.75,West,271,0.0,1.0,79,0.00,,,0.00,Wunderground v.1.15,2013-09-03 04:06:00,
2013-09-02 21:11:00,74.0,66.7,29.76,West,271,0.0,1.0,78,0.00,,,0.00,Wunderground v.1.15,2013-09-03 04:11:00,
2013-09-02 21:15:00,74.5,66.8,29.76,West,271,0.0,1.0,77,0.00,,,0.00,Wunderground v.1.15,2013-09-03 04:15:00,
2013-09-02 21:20:00,74.5,66.8,29.75,West,271,0.0,1.0,77,0.00,,,0.00,Wunderground v.1.15,2013-09-03 04:20:00,
2013-09-02 21:25:00,74.2,66.1,29.76,West,271,0.0,1.0,76,0.00,,,0.00,Wunderground v.1.15,2013-09-03 04:25:00,
2013-09-02 21:30:00,73.8,65.8,29.76,West,271,0.0,1.0,76,0.00,,,0.00,Wunderground v.1.15,2013-09-03 04:30:00,
2013-09-02 21:35:00,73.5,65.8,29.76,West,271,0.0,1.0,77,0.00,,,0.00,Wunderground v.1.15,2013-09-03 04:35:00,
2013-09-02 21:41:00,73.1,65.8,29.76,West,271,0.0,1.0,78,0.00,,,0.00,Wunderground v.1.15,2013-09-03 04:41:00,
2013-09-02 21:46:00,72.8,65.5,29.76,West,271,0.0,1.0,78,0.00,,,0.00,Wunderground v.1.15,2013-09-03 04:46:00,
2013-09-02 21:51:00,72.5,66.0,29.76,West,271,0.0,1.0,80,0.00,,,0.00,Wunderground v.1.15,2013-09-03 04:51:00,
2013-09-02 21:56:00,72.5,66.3,29.76,West,271,0.0,1.0,81,0.00,,,0.00,Wunderground v.1.15,2013-09-03 04:56:00,
2013-09-02 22:01:00,73.1,66.6,29.76,West,271,0.0,1.0,80,0.00,,,0.00,Wunderground v.1.15,2013-09-03 05:01:00,
2013-09-02 22:06:00,73.5,66.6,29.76,West,271,0.0,1.0,79,0.00,,,0.00,Wunderground v.1.15,2013-09-03 05:06:00,
2013-09-02 22:11:00,73.9,66.6,29.76,West,271,0.0,1.0,78,0.00,,,0.00,Wunderground v.1.15,2013-09-03 05:11:00,
2013-09-02 22:16:00,74.1,66.0,29.76,West,271,0.0,1.0,76,0.00,,,0.00,Wunderground v.1.15,2013-09-03 05:16:00,
2013-09-02 22:21:00,73.8,65.8,29.76,West,271,0.0,1.0,76,0.00,,,0.00,Wunderground v.1.15,2013-09-03 05:21:00,
2013-09-02 22:26:00,73.4,65.7,29.76,West,271,0.0,1.0,77,0.00,,,0.00,Wunderground v.1.15,2013-09-03 05:26:00,
2013-09-02 22:32:00,73.0,65.7,29.76,West,271,0.0,1.0,78,0.00,,,0.00,Wunderground v.1.15,2013-09-03 05:32:00,
2013-09-02 22:37:00,72.5,65.6,29.76,West,271,0.0,1.0,79,0.00,,,0.00,Wunderground v.1.15,2013-09-03 05:37:00,
2013-09-02 22:42:00,72.1,65.6,29.76,West,271,0.0,1.0,80,0.00,,,0.00,Wunderground v.1.15,2013-09-03 05:42:00,
2013-09-02 22:47:00,71.7,65.6,29.76,West,271,0.0,1.0,81,0.00,,,0.00,Wunderground v.1.15,2013-09-03 05:47:00,
2013-09-02 22:52:00,71.3,65.5,29.76,West,271,0.0,1.0,82,0.00,,,0.00,Wunderground v.1.15,2013-09-03 05:52:00,
2013-09-02 22:57:00,71.0,65.2,29.76,West,271,0.0,1.0,82,0.00,,,0.00,Wunderground v.1.15,2013-09-03 05:57:00,
2013-09-02 23:02:00,70.7,65.3,29.76,West,271,0.0,1.0,83,0.00,,,0.00,Wunderground v.1.15,2013-09-03 06:02:00,
2013-09-02 23:07:00,70.5,65.1,29.76,West,271,0.0,1.0,83,0.00,,,0.00,Wunderground v.1.15,2013-09-03 06:07:00,
2013-09-02 23:12:00,70.3,65.2,29.76,West,271,0.0,1.0,84,0.00,,,0.00,Wunderground v.1.15,2013-09-03 06:12:00,
2013-09-02 23:17:00,70.2,65.1,29.76,West,271,0.0,1.0,84,0.00,,,0.00,Wunderground v.1.15,2013-09-03 06:17:00,
2013-09-02 23:22:00,70.0,64.9,29.76,West,271,0.0,1.0,84,0.00,,,0.00,Wunderground v.1.15,2013-09-03 06:22:00,
2013-09-02 23:28:00,69.9,65.2,29.76,West,271,0.0,1.0,85,0.00,,,0.00,Wunderground v.1.15,2013-09-03 06:28:00,
2013-09-02 23:33:00,69.8,65.1,29.76,West,271,0.0,1.0,85,0.00,,,0.00,Wunderground v.1.15,2013-09-03 06:33:00,
2013-09-02 23:38:00,69.7,65.0,29.76,West,271,0.0,1.0,85,0.00,,,0.00,Wunderground v.1.15,2013-09-03 06:38:00,
2013-09-02 23:43:00,69.6,64.9,29.76,West,271,0.0,1.0,85,0.00,,,0.00,Wunderground v.1.15,2013-09-03 06:43:00,
2013-09-02 23:48:00,69.5,65.1,29.76,West,271,0.0,1.0,86,0.00,,,0.00,Wunderground v.1.15,2013-09-03 06:48:00,
2013-09-02 23:53:00,69.4,65.0,29.75,West,271,0.0,1.0,86,0.00,,,0.00,Wunderground v.1.15,2013-09-03 06:53:00,
2013-09-02 23:58:00,69.3,64.9,29.75,West,271,0.0,1.0,86,0.00,,,0.00,Wunderground v.1.15,2013-09-03 06:58:00,